Sakura — JG5711 — position and weather

sailwx.info

Track history (hours):
 
Tides and Currents Weather Stations Pressure Air Temp Water Temp Dewpoint Dewpoint Depression Visibility Wind Speed Wind Dir Waves Ship Positions

Sakura

Last reported at 2014-Nov-27 08:06 UTC. Time now 2014-Nov-27 17:13 UTC.
Position N 35°27' E 139°40'.

Length 32 m; draft 3.6 m.

Type: Tug. MMSI: 431101178.

Date/timePositionNaut miles runAvg speedWind from/ knotsBaromVisibWave heightAir tempDewpointWater temp
2014-Nov-27 08:06N 35°27' E 139°40'0 0.0
2014-Nov-27 07:33N 35°27' E 139°40'0 0.0
2014-Nov-27 06:33N 35°27' E 139°40'0 0.0
2014-Nov-27 05:33N 35°27' E 139°40'3 3.4
2014-Nov-27 04:33N 35°24' E 139°40'2 1.8
2014-Nov-27 03:33N 35°24' E 139°38'3 2.6
2014-Nov-27 02:33N 35°23' E 139°41'3 2.6
2014-Nov-27 01:33N 35°24' E 139°38'2 1.6
2014-Nov-27 00:33N 35°23' E 139°40'0 0.0
2014-Nov-26 23:33N 35°23' E 139°40'0 0.0
2014-Nov-26 22:33N 35°23' E 139°40'3 2.5
2014-Nov-26 21:33N 35°25' E 139°43'3 3.5
2014-Nov-26 20:33N 35°27' E 139°40'0 0.0
2014-Nov-26 10:07N 35°27' E 139°40'1 1.7
2014-Nov-26 09:33N 35°28' E 139°41'0 0.4
2014-Nov-26 08:33N 35°27' E 139°41'1 1.4
2014-Nov-26 07:34N 35°26' E 139°42'1 1.1
2014-Nov-26 06:34N 35°27' E 139°41'1 1.0
2014-Nov-26 05:33N 35°28' E 139°40'3 2.6
2014-Nov-26 04:33N 35°26' E 139°42'0 0.3
2014-Nov-26 03:33N 35°26' E 139°43'2 2.5
2014-Nov-26 02:33N 35°27' E 139°40'1 0.8
2014-Nov-26 01:33N 35°27' E 139°40'0 0.0
2014-Nov-26 00:33N 35°27' E 139°40'0 0.0
2014-Nov-25 23:33N 35°27' E 139°40'1 0.0
2014-Nov-24 23:16N 35°27' E 139°40'3 4.6
2014-Nov-24 22:33N 35°29' E 139°43'1 1.2
2014-Nov-24 21:33N 35°28' E 139°42'5 4.6
2014-Nov-24 20:33N 35°24' E 139°40'3 3.0
2014-Nov-24 19:33N 35°27' E 139°41'1 0.9
2014-Nov-24 18:33N 35°27' E 139°39'0 0.0
2014-Nov-24 17:33N 35°27' E 139°39'0 0.0
2014-Nov-24 16:33N 35°27' E 139°39'0 0.0
2014-Nov-24 15:33N 35°27' E 139°39'0 0.0
2014-Nov-24 14:33N 35°27' E 139°39'0 0.0
2014-Nov-24 13:33N 35°27' E 139°39'0 0.1
2014-Nov-24 12:33N 35°27' E 139°39'3 2.7
2014-Nov-24 11:33N 35°28' E 139°43'1 0.6
2014-Nov-24 10:33N 35°28' E 139°42'0 0.0
2014-Nov-24 09:33N 35°28' E 139°42'0 0.5
2014-Nov-24 08:33N 35°27' E 139°43'1 0.8
2014-Nov-24 07:33N 35°28' E 139°42'2 2.0
2014-Nov-24 06:33N 35°27' E 139°40'0 0.0
2014-Nov-24 05:33N 35°27' E 139°40'0 0.0
2014-Nov-24 04:33N 35°27' E 139°40'0 0.0
2014-Nov-24 03:33N 35°27' E 139°40'0 0.0
2014-Nov-24 02:33N 35°27' E 139°40'0 0.0
2014-Nov-24 01:33N 35°27' E 139°40'0 0.0
2014-Nov-24 00:33N 35°27' E 139°40'2 1.7
2014-Nov-23 23:33N 35°28' E 139°41'2 1.7
2014-Nov-23 22:33N 35°27' E 139°43'3 2.8
2014-Nov-23 21:33N 35°27' E 139°40'0 0.0
2014-Nov-23 06:29N 35°27' E 139°40'1 1.4
2014-Nov-23 05:34N 35°26' E 139°41'1 1.3
2014-Nov-23 04:33N 35°27' E 139°40'0 0.0
2014-Nov-23 03:33N 35°27' E 139°40'0 0.0
2014-Nov-23 02:34N 35°27' E 139°40'0 0.0
2014-Nov-23 01:33N 35°27' E 139°40'0 0.0
2014-Nov-23 00:33N 35°27' E 139°40'0 0.0
2014-Nov-22 23:34N 35°27' E 139°40'1 1.4
2014-Nov-22 22:33N 35°28' E 139°41'2 2.4
2014-Nov-22 21:34N 35°27' E 139°43'3 3.0
2014-Nov-22 20:33N 35°27' E 139°40'1 0.1
2014-Nov-22 08:33N 35°27' E 139°41'0 0.5
2014-Nov-22 07:33N 35°26' E 139°41'1 1.2
2014-Nov-22 06:33N 35°27' E 139°40'0 0.0
2014-Nov-22 05:33N 35°27' E 139°40'0 0.0
2014-Nov-22 04:33N 35°27' E 139°40'0 0.0
2014-Nov-22 03:33N 35°27' E 139°40'0 0.0
2014-Nov-22 02:33N 35°27' E 139°40'5 5.1
2014-Nov-22 01:33N 35°30' E 139°44'1 0.7
2014-Nov-22 00:33N 35°30' E 139°45'1 0.8
2014-Nov-21 23:33N 35°30' E 139°44'4 4.0
2014-Nov-21 22:33N 35°28' E 139°40'1 1.3
2014-Nov-21 21:34N 35°27' E 139°42'2 1.6
2014-Nov-21 20:34N 35°27' E 139°40'0 0.0
2014-Nov-21 07:12N 35°27' E 139°40'0 0.0
2014-Nov-21 06:33N 35°27' E 139°40'1 1.0
2014-Nov-21 05:33N 35°27' E 139°41'2 2.1
2014-Nov-21 04:33N 35°25' E 139°41'2 2.5
2014-Nov-21 03:33N 35°27' E 139°40'0 0.0
2014-Nov-21 02:33N 35°27' E 139°40'0 0.0
2014-Nov-21 01:33N 35°27' E 139°40'0 0.0
2014-Nov-21 00:33N 35°27' E 139°40'1 1.2
2014-Nov-20 23:33N 35°28' E 139°40'2 2.4
2014-Nov-20 22:34N 35°27' E 139°43'2 2.2
2014-Nov-20 21:33N 35°27' E 139°40'1 0.1
2014-Nov-20 14:34N 35°27' E 139°40'1 1.3
2014-Nov-20 13:33N 35°26' E 139°41'4 3.7
2014-Nov-20 12:32N 35°30' E 139°43'3 2.8
2014-Nov-20 11:33N 35°27' E 139°43'1 0.7
2014-Nov-20 10:33N 35°27' E 139°42'0 0.0
2014-Nov-20 09:33N 35°27' E 139°42'0 0.0
2014-Nov-20 08:33N 35°27' E 139°42'1 1.4
2014-Nov-20 07:34N 35°26' E 139°41'1 1.5
2014-Nov-20 06:33N 35°27' E 139°39'0 0.0
2014-Nov-20 05:33N 35°27' E 139°39'1 1.2
2014-Nov-20 04:33N 35°28' E 139°41'5 4.8
2014-Nov-20 03:33N 35°30' E 139°46'2 1.7
2014-Nov-20 02:33N 35°29' E 139°46'0 0.3
2014-Nov-20 01:34N 35°29' E 139°46'0 0.0
2014-Nov-20 00:33N 35°29' E 139°46'5 0.3
2014-Nov-19 07:15N 35°27' E 139°40'0 0.0
2014-Nov-19 06:34N 35°27' E 139°40'0 0.2
2014-Nov-19 05:33N 35°27' E 139°39'0 0.0
2014-Nov-19 04:33N 35°27' E 139°39'7 6.7
2014-Nov-19 03:33N 35°31' E 139°46'0 0.1
2014-Nov-19 02:34N 35°31' E 139°46'2 2.0
2014-Nov-19 01:32N 35°30' E 139°47'1 1.0
2014-Nov-19 00:33N 35°30' E 139°46'1 1.1
2014-Nov-18 23:33N 35°31' E 139°46'0 0.4
2014-Nov-18 22:34N 35°31' E 139°46'2 2.4
2014-Nov-18 21:33N 35°30' E 139°44'4 4.2
2014-Nov-18 20:33N 35°27' E 139°40'0 0.0
2014-Nov-18 07:21N 35°27' E 139°40'4 4.9
2014-Nov-18 06:33N 35°29' E 139°43'2 1.7
2014-Nov-18 05:33N 35°28' E 139°44'0 0.0
2014-Nov-18 04:33N 35°28' E 139°44'0 0.0
2014-Nov-18 03:33N 35°28' E 139°44'8 1.9
2014-Nov-17 23:17N 35°29' E 139°54'710.2
2014-Nov-17 22:33N 35°27' E 139°45'5 4.6
2014-Nov-17 21:33N 35°27' E 139°40'  
Track history (hours):
 
Tides and Currents Weather Stations Pressure Air Temp Water Temp Dewpoint Dewpoint Depression Visibility Wind Speed Wind Dir Waves Ship Positions

Sakura

Last reported at 2014-Nov-27 08:06 UTC. Time now 2014-Nov-27 17:13 UTC.
Position N 35°27' E 139°40'.

Length 32 m; draft 3.6 m.

Type: Tug. MMSI: 431101178.

Date/timePositionNaut miles runAvg speedWind from/ knotsBaromVisibWave heightAir tempDewpointWater temp
2014-Nov-27 08:06N 35°27' E 139°40'0 0.0
2014-Nov-27 07:33N 35°27' E 139°40'0 0.0
2014-Nov-27 06:33N 35°27' E 139°40'0 0.0
2014-Nov-27 05:33N 35°27' E 139°40'3 3.4
2014-Nov-27 04:33N 35°24' E 139°40'2 1.8
2014-Nov-27 03:33N 35°24' E 139°38'3 2.6
2014-Nov-27 02:33N 35°23' E 139°41'3 2.6
2014-Nov-27 01:33N 35°24' E 139°38'2 1.6
2014-Nov-27 00:33N 35°23' E 139°40'0 0.0
2014-Nov-26 23:33N 35°23' E 139°40'0 0.0
2014-Nov-26 22:33N 35°23' E 139°40'3 2.5
2014-Nov-26 21:33N 35°25' E 139°43'3 3.5
2014-Nov-26 20:33N 35°27' E 139°40'0 0.0
2014-Nov-26 10:07N 35°27' E 139°40'1 1.7
2014-Nov-26 09:33N 35°28' E 139°41'0 0.4
2014-Nov-26 08:33N 35°27' E 139°41'1 1.4
2014-Nov-26 07:34N 35°26' E 139°42'1 1.1
2014-Nov-26 06:34N 35°27' E 139°41'1 1.0
2014-Nov-26 05:33N 35°28' E 139°40'3 2.6
2014-Nov-26 04:33N 35°26' E 139°42'0 0.3
2014-Nov-26 03:33N 35°26' E 139°43'2 2.5
2014-Nov-26 02:33N 35°27' E 139°40'1 0.8
2014-Nov-26 01:33N 35°27' E 139°40'0 0.0
2014-Nov-26 00:33N 35°27' E 139°40'0 0.0
2014-Nov-25 23:33N 35°27' E 139°40'1 0.0
2014-Nov-24 23:16N 35°27' E 139°40'3 4.6
2014-Nov-24 22:33N 35°29' E 139°43'1 1.2
2014-Nov-24 21:33N 35°28' E 139°42'5 4.6
2014-Nov-24 20:33N 35°24' E 139°40'3 3.0
2014-Nov-24 19:33N 35°27' E 139°41'1 0.9
2014-Nov-24 18:33N 35°27' E 139°39'0 0.0
2014-Nov-24 17:33N 35°27' E 139°39'0 0.0
2014-Nov-24 16:33N 35°27' E 139°39'0 0.0
2014-Nov-24 15:33N 35°27' E 139°39'0 0.0
2014-Nov-24 14:33N 35°27' E 139°39'0 0.0
2014-Nov-24 13:33N 35°27' E 139°39'0 0.1
2014-Nov-24 12:33N 35°27' E 139°39'3 2.7
2014-Nov-24 11:33N 35°28' E 139°43'1 0.6
2014-Nov-24 10:33N 35°28' E 139°42'0 0.0
2014-Nov-24 09:33N 35°28' E 139°42'0 0.5
2014-Nov-24 08:33N 35°27' E 139°43'1 0.8
2014-Nov-24 07:33N 35°28' E 139°42'2 2.0
2014-Nov-24 06:33N 35°27' E 139°40'0 0.0
2014-Nov-24 05:33N 35°27' E 139°40'0 0.0
2014-Nov-24 04:33N 35°27' E 139°40'0 0.0
2014-Nov-24 03:33N 35°27' E 139°40'0 0.0
2014-Nov-24 02:33N 35°27' E 139°40'0 0.0
2014-Nov-24 01:33N 35°27' E 139°40'0 0.0
2014-Nov-24 00:33N 35°27' E 139°40'2 1.7
2014-Nov-23 23:33N 35°28' E 139°41'2 1.7
2014-Nov-23 22:33N 35°27' E 139°43'3 2.8
2014-Nov-23 21:33N 35°27' E 139°40'0 0.0
2014-Nov-23 06:29N 35°27' E 139°40'1 1.4
2014-Nov-23 05:34N 35°26' E 139°41'1 1.3
2014-Nov-23 04:33N 35°27' E 139°40'0 0.0
2014-Nov-23 03:33N 35°27' E 139°40'0 0.0
2014-Nov-23 02:34N 35°27' E 139°40'0 0.0
2014-Nov-23 01:33N 35°27' E 139°40'0 0.0
2014-Nov-23 00:33N 35°27' E 139°40'0 0.0
2014-Nov-22 23:34N 35°27' E 139°40'1 1.4
2014-Nov-22 22:33N 35°28' E 139°41'2 2.4
2014-Nov-22 21:34N 35°27' E 139°43'3 3.0
2014-Nov-22 20:33N 35°27' E 139°40'1 0.1
2014-Nov-22 08:33N 35°27' E 139°41'0 0.5
2014-Nov-22 07:33N 35°26' E 139°41'1 1.2
2014-Nov-22 06:33N 35°27' E 139°40'0 0.0
2014-Nov-22 05:33N 35°27' E 139°40'0 0.0
2014-Nov-22 04:33N 35°27' E 139°40'0 0.0
2014-Nov-22 03:33N 35°27' E 139°40'0 0.0
2014-Nov-22 02:33N 35°27' E 139°40'5 5.1
2014-Nov-22 01:33N 35°30' E 139°44'1 0.7
2014-Nov-22 00:33N 35°30' E 139°45'1 0.8
2014-Nov-21 23:33N 35°30' E 139°44'4 4.0
2014-Nov-21 22:33N 35°28' E 139°40'1 1.3
2014-Nov-21 21:34N 35°27' E 139°42'2 1.6
2014-Nov-21 20:34N 35°27' E 139°40'0 0.0
2014-Nov-21 07:12N 35°27' E 139°40'0 0.0
2014-Nov-21 06:33N 35°27' E 139°40'1 1.0
2014-Nov-21 05:33N 35°27' E 139°41'2 2.1
2014-Nov-21 04:33N 35°25' E 139°41'2 2.5
2014-Nov-21 03:33N 35°27' E 139°40'0 0.0
2014-Nov-21 02:33N 35°27' E 139°40'0 0.0
2014-Nov-21 01:33N 35°27' E 139°40'0 0.0
2014-Nov-21 00:33N 35°27' E 139°40'1 1.2
2014-Nov-20 23:33N 35°28' E 139°40'2 2.4
2014-Nov-20 22:34N 35°27' E 139°43'2 2.2
2014-Nov-20 21:33N 35°27' E 139°40'1 0.1
2014-Nov-20 14:34N 35°27' E 139°40'1 1.3
2014-Nov-20 13:33N 35°26' E 139°41'4 3.7
2014-Nov-20 12:32N 35°30' E 139°43'3 2.8
2014-Nov-20 11:33N 35°27' E 139°43'1 0.7
2014-Nov-20 10:33N 35°27' E 139°42'0 0.0
2014-Nov-20 09:33N 35°27' E 139°42'0 0.0
2014-Nov-20 08:33N 35°27' E 139°42'1 1.4
2014-Nov-20 07:34N 35°26' E 139°41'1 1.5
2014-Nov-20 06:33N 35°27' E 139°39'0 0.0
2014-Nov-20 05:33N 35°27' E 139°39'1 1.2
2014-Nov-20 04:33N 35°28' E 139°41'5 4.8
2014-Nov-20 03:33N 35°30' E 139°46'2 1.7
2014-Nov-20 02:33N 35°29' E 139°46'0 0.3
2014-Nov-20 01:34N 35°29' E 139°46'0 0.0
2014-Nov-20 00:33N 35°29' E 139°46'5 0.3
2014-Nov-19 07:15N 35°27' E 139°40'0 0.0
2014-Nov-19 06:34N 35°27' E 139°40'0 0.2
2014-Nov-19 05:33N 35°27' E 139°39'0 0.0
2014-Nov-19 04:33N 35°27' E 139°39'7 6.7
2014-Nov-19 03:33N 35°31' E 139°46'0 0.1
2014-Nov-19 02:34N 35°31' E 139°46'2 2.0
2014-Nov-19 01:32N 35°30' E 139°47'1 1.0
2014-Nov-19 00:33N 35°30' E 139°46'1 1.1
2014-Nov-18 23:33N 35°31' E 139°46'0 0.4
2014-Nov-18 22:34N 35°31' E 139°46'2 2.4
2014-Nov-18 21:33N 35°30' E 139°44'4 4.2
2014-Nov-18 20:33N 35°27' E 139°40'0 0.0
2014-Nov-18 07:21N 35°27' E 139°40'4 4.9
2014-Nov-18 06:33N 35°29' E 139°43'2 1.7
2014-Nov-18 05:33N 35°28' E 139°44'0 0.0
2014-Nov-18 04:33N 35°28' E 139°44'0 0.0
2014-Nov-18 03:33N 35°28' E 139°44'8 1.9
2014-Nov-17 23:17N 35°29' E 139°54'710.2
2014-Nov-17 22:33N 35°27' E 139°45'5 4.6
2014-Nov-17 21:33N 35°27' E 139°40'  

Dump ship's entire track history